sensor_id;sensor_type;location;lat;lon;timestamp;P1;durP1;ratioP1;P2;durP2;ratioP2
61570;SDS011;47463;49.884;10.010;2022-08-01T00:00:00;4.5;;;3.6;;
61570;SDS011;47463;49.884;10.010;2022-08-01T00:05:00;6.3;;;3.6;;
61570;SDS011;47463;49.884;10.010;2022-08-01T00:10:00;6.3;;;3.6;;
61570;SDS011;47463;49.884;10.010;2022-08-01T00:15:00;4;;;3.5;;
61570;SDS011;47463;49.884;10.010;2022-08-01T00:20:00;4;;;3.5;;
61570;SDS011;47463;49.884;10.010;2022-08-01T00:25:00;3.9;;;3.5;;
61570;SDS011;47463;49.884;10.010;2022-08-01T00:30:00;3.9;;;3.5;;
61570;SDS011;47463;49.884;10.010;2022-08-01T00:35:00;3.8;;;3.3;;
61570;SDS011;47463;49.884;10.010;2022-08-01T00:40:00;3.8;;;3.3;;
61570;SDS011;47463;49.884;10.010;2022-08-01T00:45:00;4.3;;;3.3;;
61570;SDS011;47463;49.884;10.010;2022-08-01T00:50:00;4.3;;;3.3;;
61570;SDS011;47463;49.884;10.010;2022-08-01T00:55:00;4.8;;;3.3;;
61570;SDS011;47463;49.884;10.010;2022-08-01T01:00:00;4.8;;;3.3;;
61570;SDS011;47463;49.884;10.010;2022-08-01T01:05:00;4.6;;;3.5;;
61570;SDS011;47463;49.884;10.010;2022-08-01T01:10:00;4.6;;;3.5;;
61570;SDS011;47463;49.884;10.010;2022-08-01T01:15:01;4.8;;;3.1;;
61570;SDS011;47463;49.884;10.010;2022-08-01T01:20:00;4.8;;;3.1;;
61570;SDS011;47463;49.884;10.010;2022-08-01T01:25:19;5.5;;;3.6;;
61570;SDS011;47463;49.884;10.010;2022-08-01T01:30:00;5.5;;;3.6;;
61570;SDS011;47463;49.884;10.010;2022-08-01T01:35:00;5.5;;;3.3;;
61570;SDS011;47463;49.884;10.010;2022-08-01T01:40:00;5.5;;;3.3;;
61570;SDS011;47463;49.884;10.010;2022-08-01T01:45:00;6;;;3.5;;
61570;SDS011;47463;49.884;10.010;2022-08-01T01:50:00;6;;;3.5;;
61570;SDS011;47463;49.884;10.010;2022-08-01T01:55:00;3.9;;;3.5;;
61570;SDS011;47463;49.884;10.010;2022-08-01T02:00:00;3.9;;;3.5;;
61570;SDS011;47463;49.884;10.010;2022-08-01T02:05:00;5.9;;;3.4;;
61570;SDS011;47463;49.884;10.010;2022-08-01T02:10:00;5.9;;;3.4;;
61570;SDS011;47463;49.884;10.010;2022-08-01T02:15:00;4.4;;;3.5;;
61570;SDS011;47463;49.884;10.010;2022-08-01T02:20:00;4.4;;;3.5;;
61570;SDS011;47463;49.884;10.010;2022-08-01T02:25:00;5.3;;;3.8;;
61570;SDS011;47463;49.884;10.010;2022-08-01T02:30:00;5.3;;;3.8;;
61570;SDS011;47463;49.884;10.010;2022-08-01T02:35:00;9.2;;;3.9;;
61570;SDS011;47463;49.884;10.010;2022-08-01T02:40:00;9.2;;;3.9;;
61570;SDS011;47463;49.884;10.010;2022-08-01T02:45:00;6.2;;;3.5;;
61570;SDS011;47463;49.884;10.010;2022-08-01T02:50:00;6.2;;;3.5;;
61570;SDS011;47463;49.884;10.010;2022-08-01T02:55:00;3.8;;;3.3;;
61570;SDS011;47463;49.884;10.010;2022-08-01T03:00:00;3.8;;;3.3;;
61570;SDS011;47463;49.884;10.010;2022-08-01T03:05:00;4.5;;;3.4;;
61570;SDS011;47463;49.884;10.010;2022-08-01T03:10:00;4.5;;;3.4;;
61570;SDS011;47463;49.884;10.010;2022-08-01T03:15:00;5.4;;;3.7;;
61570;SDS011;47463;49.884;10.010;2022-08-01T03:20:00;5.4;;;3.7;;
61570;SDS011;47463;49.884;10.010;2022-08-01T03:25:00;6.7;;;3.9;;
61570;SDS011;47463;49.884;10.010;2022-08-01T03:30:00;6.7;;;3.9;;
61570;SDS011;47463;49.884;10.010;2022-08-01T03:35:00;4.6;;;3.2;;
61570;SDS011;47463;49.884;10.010;2022-08-01T03:40:00;4.6;;;3.2;;
61570;SDS011;47463;49.884;10.010;2022-08-01T03:45:02;4.2;;;3.8;;
61570;SDS011;47463;49.884;10.010;2022-08-01T03:50:00;4.2;;;3.8;;
61570;SDS011;47463;49.884;10.010;2022-08-01T03:55:01;5.9;;;3.4;;
61570;SDS011;47463;49.884;10.010;2022-08-01T04:00:00;5.9;;;3.4;;
61570;SDS011;47463;49.884;10.010;2022-08-01T04:05:00;3.9;;;3.4;;
61570;SDS011;47463;49.884;10.010;2022-08-01T04:10:00;3.9;;;3.4;;
61570;SDS011;47463;49.884;10.010;2022-08-01T04:15:00;4.7;;;3.4;;
61570;SDS011;47463;49.884;10.010;2022-08-01T04:20:00;4.7;;;3.4;;
61570;SDS011;47463;49.884;10.010;2022-08-01T04:25:00;5.2;;;3.1;;
61570;SDS011;47463;49.884;10.010;2022-08-01T04:30:00;5.2;;;3.1;;
61570;SDS011;47463;49.884;10.010;2022-08-01T04:35:00;4;;;3.3;;
61570;SDS011;47463;49.884;10.010;2022-08-01T04:40:00;4;;;3.3;;
61570;SDS011;47463;49.884;10.010;2022-08-01T04:45:00;4.8;;;3.7;;
61570;SDS011;47463;49.884;10.010;2022-08-01T04:50:00;4.8;;;3.7;;
61570;SDS011;47463;49.884;10.010;2022-08-01T04:55:00;3.5;;;3.1;;
61570;SDS011;47463;49.884;10.010;2022-08-01T05:00:00;3.5;;;3.1;;
61570;SDS011;47463;49.884;10.010;2022-08-01T05:05:00;3.6;;;2.9;;
61570;SDS011;47463;49.884;10.010;2022-08-01T05:10:00;3.6;;;2.9;;
61570;SDS011;47463;49.884;10.010;2022-08-01T05:15:00;4.1;;;3;;
61570;SDS011;47463;49.884;10.010;2022-08-01T05:20:00;4.1;;;3;;
61570;SDS011;47463;49.884;10.010;2022-08-01T05:25:00;3.6;;;3;;
61570;SDS011;47463;49.884;10.010;2022-08-01T05:30:00;3.6;;;3;;
61570;SDS011;47463;49.884;10.010;2022-08-01T05:35:00;4;;;2.9;;
61570;SDS011;47463;49.884;10.010;2022-08-01T05:40:00;4;;;2.9;;
61570;SDS011;47463;49.884;10.010;2022-08-01T05:45:00;4.3;;;2.6;;
61570;SDS011;47463;49.884;10.010;2022-08-01T05:50:00;4.3;;;2.6;;
61570;SDS011;47463;49.884;10.010;2022-08-01T05:55:00;3.9;;;2.6;;
61570;SDS011;47463;49.884;10.010;2022-08-01T06:00:00;3.9;;;2.6;;
61570;SDS011;47463;49.884;10.010;2022-08-01T06:05:00;4.7;;;2.4;;
61570;SDS011;47463;49.884;10.010;2022-08-01T06:10:00;4.7;;;2.4;;
61570;SDS011;47463;49.884;10.010;2022-08-01T06:15:00;4.2;;;2.4;;
61570;SDS011;47463;49.884;10.010;2022-08-01T06:20:00;4.2;;;2.4;;
61570;SDS011;47463;49.884;10.010;2022-08-01T06:25:00;3;;;2.6;;
61570;SDS011;47463;49.884;10.010;2022-08-01T06:30:00;3;;;2.6;;
61570;SDS011;47463;49.884;10.010;2022-08-01T06:35:00;4.2;;;2.7;;
61570;SDS011;47463;49.884;10.010;2022-08-01T06:40:00;4.2;;;2.7;;
61570;SDS011;47463;49.884;10.010;2022-08-01T06:45:00;3.8;;;2.8;;
61570;SDS011;47463;49.884;10.010;2022-08-01T06:50:00;3.8;;;2.8;;
61570;SDS011;47463;49.884;10.010;2022-08-01T06:55:00;3.8;;;2.8;;
61570;SDS011;47463;49.884;10.010;2022-08-01T07:00:00;5.6;;;3.2;;
61570;SDS011;47463;49.884;10.010;2022-08-01T07:05:00;5.6;;;3.2;;
61570;SDS011;47463;49.884;10.010;2022-08-01T07:10:00;3.9;;;2.8;;
61570;SDS011;47463;49.884;10.010;2022-08-01T07:15:00;3.9;;;2.8;;
61570;SDS011;47463;49.884;10.010;2022-08-01T07:20:00;3;;;2.7;;
61570;SDS011;47463;49.884;10.010;2022-08-01T07:25:00;3;;;2.7;;
61570;SDS011;47463;49.884;10.010;2022-08-01T07:30:00;7;;;3.1;;
61570;SDS011;47463;49.884;10.010;2022-08-01T07:35:00;7;;;3.1;;
61570;SDS011;47463;49.884;10.010;2022-08-01T07:40:00;4.7;;;4;;
61570;SDS011;47463;49.884;10.010;2022-08-01T07:45:00;4.7;;;4;;
61570;SDS011;47463;49.884;10.010;2022-08-01T07:50:00;5.7;;;3.9;;
61570;SDS011;47463;49.884;10.010;2022-08-01T07:55:00;5.7;;;3.9;;
61570;SDS011;47463;49.884;10.010;2022-08-01T08:00:00;6.6;;;4.7;;
61570;SDS011;47463;49.884;10.010;2022-08-01T08:05:00;6.6;;;4.7;;
61570;SDS011;47463;49.884;10.010;2022-08-01T08:10:00;5.3;;;4.4;;
61570;SDS011;47463;49.884;10.010;2022-08-01T08:15:00;5.3;;;4.4;;
61570;SDS011;47463;49.884;10.010;2022-08-01T08:20:00;4.2;;;3.8;;
61570;SDS011;47463;49.884;10.010;2022-08-01T08:25:00;4.2;;;3.8;;
61570;SDS011;47463;49.884;10.010;2022-08-01T08:30:00;4.2;;;3.8;;
61570;SDS011;47463;49.884;10.010;2022-08-01T08:35:00;4.2;;;3.8;;
61570;SDS011;47463;49.884;10.010;2022-08-01T08:40:00;5.6;;;4.4;;
61570;SDS011;47463;49.884;10.010;2022-08-01T08:45:00;5.6;;;4.4;;
61570;SDS011;47463;49.884;10.010;2022-08-01T08:50:00;4.4;;;3.7;;
61570;SDS011;47463;49.884;10.010;2022-08-01T08:55:00;4.4;;;3.7;;
61570;SDS011;47463;49.884;10.010;2022-08-01T09:00:00;4.8;;;3.9;;
61570;SDS011;47463;49.884;10.010;2022-08-01T09:05:00;4.8;;;3.9;;
61570;SDS011;47463;49.884;10.010;2022-08-01T09:10:00;4;;;3.4;;
61570;SDS011;47463;49.884;10.010;2022-08-01T09:15:00;4;;;3.4;;
61570;SDS011;47463;49.884;10.010;2022-08-01T09:20:00;5.1;;;3.9;;
61570;SDS011;47463;49.884;10.010;2022-08-01T09:25:01;5.1;;;3.9;;
61570;SDS011;47463;49.884;10.010;2022-08-01T09:30:08;3.3;;;3;;
61570;SDS011;47463;49.884;10.010;2022-08-01T09:35:00;3.3;;;3;;
61570;SDS011;47463;49.884;10.010;2022-08-01T09:40:00;4.2;;;3.1;;
61570;SDS011;47463;49.884;10.010;2022-08-01T09:45:00;4.2;;;3.1;;
61570;SDS011;47463;49.884;10.010;2022-08-01T09:50:00;3.9;;;3.2;;
61570;SDS011;47463;49.884;10.010;2022-08-01T09:55:00;3.9;;;3.2;;
61570;SDS011;47463;49.884;10.010;2022-08-01T10:00:00;3.8;;;2.7;;
61570;SDS011;47463;49.884;10.010;2022-08-01T10:05:00;3.8;;;2.7;;
61570;SDS011;47463;49.884;10.010;2022-08-01T10:10:08;3.5;;;3.2;;
61570;SDS011;47463;49.884;10.010;2022-08-01T10:15:00;3.5;;;3.2;;
61570;SDS011;47463;49.884;10.010;2022-08-01T10:20:00;3.8;;;2.9;;
61570;SDS011;47463;49.884;10.010;2022-08-01T10:25:00;3.8;;;2.9;;
61570;SDS011;47463;49.884;10.010;2022-08-01T10:30:00;4.4;;;2.8;;
61570;SDS011;47463;49.884;10.010;2022-08-01T10:35:00;4.4;;;2.8;;
61570;SDS011;47463;49.884;10.010;2022-08-01T10:40:00;3.9;;;2.8;;
61570;SDS011;47463;49.884;10.010;2022-08-01T10:45:00;3.9;;;2.8;;
61570;SDS011;47463;49.884;10.010;2022-08-01T10:50:01;2.9;;;2.5;;
61570;SDS011;47463;49.884;10.010;2022-08-01T10:55:01;2.9;;;2.5;;
61570;SDS011;47463;49.884;10.010;2022-08-01T11:00:00;4.7;;;2.3;;
61570;SDS011;47463;49.884;10.010;2022-08-01T11:05:00;4.7;;;2.3;;
61570;SDS011;47463;49.884;10.010;2022-08-01T11:10:02;6.9;;;3.1;;
61570;SDS011;47463;49.884;10.010;2022-08-01T11:15:31;6.9;;;3.1;;
61570;SDS011;47463;49.884;10.010;2022-08-01T11:20:03;7;;;2.7;;
61570;SDS011;47463;49.884;10.010;2022-08-01T11:25:00;7;;;2.7;;
61570;SDS011;47463;49.884;10.010;2022-08-01T11:30:31;3.3;;;1.9;;
61570;SDS011;47463;49.884;10.010;2022-08-01T11:35:00;3.3;;;1.9;;
61570;SDS011;47463;49.884;10.010;2022-08-01T11:40:16;2.7;;;2.1;;
61570;SDS011;47463;49.884;10.010;2022-08-01T11:45:00;2.7;;;2.1;;
61570;SDS011;47463;49.884;10.010;2022-08-01T11:50:00;6.3;;;3;;
61570;SDS011;47463;49.884;10.010;2022-08-01T11:55:04;6.3;;;3;;
61570;SDS011;47463;49.884;10.010;2022-08-01T12:00:01;2.7;;;1.9;;
61570;SDS011;47463;49.884;10.010;2022-08-01T12:05:00;2.7;;;1.9;;
61570;SDS011;47463;49.884;10.010;2022-08-01T12:10:02;2.7;;;1.9;;
61570;SDS011;47463;49.884;10.010;2022-08-01T12:15:00;2.7;;;1.9;;
61570;SDS011;47463;49.884;10.010;2022-08-01T12:20:00;2.5;;;2.1;;
61570;SDS011;47463;49.884;10.010;2022-08-01T12:25:08;2.5;;;2.1;;
61570;SDS011;47463;49.884;10.010;2022-08-01T12:30:00;3.5;;;2.2;;
61570;SDS011;47463;49.884;10.010;2022-08-01T12:35:01;3.5;;;2.2;;
61570;SDS011;47463;49.884;10.010;2022-08-01T12:40:00;4.2;;;2.7;;
61570;SDS011;47463;49.884;10.010;2022-08-01T12:45:00;4.2;;;2.7;;
61570;SDS011;47463;49.884;10.010;2022-08-01T12:50:00;2.4;;;2.1;;
61570;SDS011;47463;49.884;10.010;2022-08-01T12:55:02;2.4;;;2.1;;
61570;SDS011;47463;49.884;10.010;2022-08-01T13:00:05;3.8;;;2.7;;
61570;SDS011;47463;49.884;10.010;2022-08-01T13:05:00;3.8;;;2.7;;
61570;SDS011;47463;49.884;10.010;2022-08-01T13:10:00;2.8;;;2.4;;
61570;SDS011;47463;49.884;10.010;2022-08-01T13:15:12;2.8;;;2.4;;
61570;SDS011;47463;49.884;10.010;2022-08-01T13:20:00;3.7;;;2.6;;
61570;SDS011;47463;49.884;10.010;2022-08-01T13:25:16;3.7;;;2.6;;
61570;SDS011;47463;49.884;10.010;2022-08-01T13:30:09;3.9;;;2.6;;
61570;SDS011;47463;49.884;10.010;2022-08-01T13:35:00;3.9;;;2.6;;
61570;SDS011;47463;49.884;10.010;2022-08-01T13:40:00;4.3;;;2.4;;
61570;SDS011;47463;49.884;10.010;2022-08-01T13:45:00;4.3;;;2.4;;
61570;SDS011;47463;49.884;10.010;2022-08-01T13:50:00;3.9;;;2.3;;
61570;SDS011;47463;49.884;10.010;2022-08-01T13:55:00;3.9;;;2.3;;
61570;SDS011;47463;49.884;10.010;2022-08-01T14:00:00;2.9;;;2.2;;
61570;SDS011;47463;49.884;10.010;2022-08-01T14:05:00;2.9;;;2.2;;
61570;SDS011;47463;49.884;10.010;2022-08-01T14:10:00;3.9;;;2.3;;
61570;SDS011;47463;49.884;10.010;2022-08-01T14:15:00;3.9;;;2.3;;
61570;SDS011;47463;49.884;10.010;2022-08-01T14:20:00;3.6;;;2.3;;
61570;SDS011;47463;49.884;10.010;2022-08-01T14:25:00;3.6;;;2.3;;
61570;SDS011;47463;49.884;10.010;2022-08-01T14:30:00;3;;;2.4;;
61570;SDS011;47463;49.884;10.010;2022-08-01T14:35:00;3;;;2.4;;
61570;SDS011;47463;49.884;10.010;2022-08-01T14:40:00;6;;;2.4;;
61570;SDS011;47463;49.884;10.010;2022-08-01T14:45:00;6;;;2.4;;
61570;SDS011;47463;49.884;10.010;2022-08-01T14:50:00;3.2;;;2.8;;
61570;SDS011;47463;49.884;10.010;2022-08-01T14:55:00;3.2;;;2.8;;
61570;SDS011;47463;49.884;10.010;2022-08-01T15:00:00;3.8;;;2.7;;
61570;SDS011;47463;49.884;10.010;2022-08-01T15:05:00;3.8;;;2.7;;
61570;SDS011;47463;49.884;10.010;2022-08-01T15:10:00;5.2;;;3;;
61570;SDS011;47463;49.884;10.010;2022-08-01T15:15:00;5.2;;;3;;
61570;SDS011;47463;49.884;10.010;2022-08-01T15:20:00;3.4;;;2.7;;
61570;SDS011;47463;49.884;10.010;2022-08-01T15:25:01;3.4;;;2.7;;
61570;SDS011;47463;49.884;10.010;2022-08-01T15:30:00;3.9;;;2.8;;
61570;SDS011;47463;49.884;10.010;2022-08-01T15:35:00;3.9;;;2.8;;
61570;SDS011;47463;49.884;10.010;2022-08-01T15:40:00;3.8;;;3.4;;
61570;SDS011;47463;49.884;10.010;2022-08-01T15:45:00;3.8;;;3.4;;
61570;SDS011;47463;49.884;10.010;2022-08-01T15:50:00;4.5;;;2.9;;
61570;SDS011;47463;49.884;10.010;2022-08-01T15:55:00;4.5;;;2.9;;
61570;SDS011;47463;49.884;10.010;2022-08-01T16:00:00;3.3;;;3;;
61570;SDS011;47463;49.884;10.010;2022-08-01T16:05:00;3.3;;;3;;
61570;SDS011;47463;49.884;10.010;2022-08-01T16:10:00;3.2;;;2.7;;
61570;SDS011;47463;49.884;10.010;2022-08-01T16:15:00;3.2;;;2.7;;
61570;SDS011;47463;49.884;10.010;2022-08-01T16:20:00;4.1;;;3.7;;
61570;SDS011;47463;49.884;10.010;2022-08-01T16:25:00;4.1;;;3.7;;
61570;SDS011;47463;49.884;10.010;2022-08-01T16:30:00;3.9;;;3.4;;
61570;SDS011;47463;49.884;10.010;2022-08-01T16:35:00;3.9;;;3.4;;
61570;SDS011;47463;49.884;10.010;2022-08-01T16:40:00;5.1;;;3.8;;
61570;SDS011;47463;49.884;10.010;2022-08-01T16:45:00;5.1;;;3.8;;
61570;SDS011;47463;49.884;10.010;2022-08-01T16:50:00;4.5;;;3.8;;
61570;SDS011;47463;49.884;10.010;2022-08-01T16:55:00;4.5;;;3.8;;
61570;SDS011;47463;49.884;10.010;2022-08-01T17:00:00;6.6;;;4.1;;
61570;SDS011;47463;49.884;10.010;2022-08-01T17:05:00;6.6;;;4.1;;
61570;SDS011;47463;49.884;10.010;2022-08-01T17:10:00;5.2;;;4.1;;
61570;SDS011;47463;49.884;10.010;2022-08-01T17:15:00;5.2;;;4.1;;
61570;SDS011;47463;49.884;10.010;2022-08-01T17:20:00;4.9;;;4.4;;
61570;SDS011;47463;49.884;10.010;2022-08-01T17:25:00;4.9;;;4.4;;
61570;SDS011;47463;49.884;10.010;2022-08-01T17:30:00;5.5;;;4;;
61570;SDS011;47463;49.884;10.010;2022-08-01T17:35:00;5.5;;;4;;
61570;SDS011;47463;49.884;10.010;2022-08-01T17:40:00;7.4;;;4.2;;
61570;SDS011;47463;49.884;10.010;2022-08-01T17:45:00;7.4;;;4.2;;
61570;SDS011;47463;49.884;10.010;2022-08-01T17:50:00;5.1;;;4.6;;
61570;SDS011;47463;49.884;10.010;2022-08-01T17:55:00;5.1;;;4.6;;
61570;SDS011;47463;49.884;10.010;2022-08-01T18:00:00;5.1;;;4.6;;
61570;SDS011;47463;49.884;10.010;2022-08-01T18:05:00;5.1;;;4.6;;
61570;SDS011;47463;49.884;10.010;2022-08-01T18:10:00;5.3;;;4.8;;
61570;SDS011;47463;49.884;10.010;2022-08-01T18:15:00;5.3;;;4.8;;
61570;SDS011;47463;49.884;10.010;2022-08-01T18:20:00;5.1;;;4.6;;
61570;SDS011;47463;49.884;10.010;2022-08-01T18:25:00;5.1;;;4.6;;
61570;SDS011;47463;49.884;10.010;2022-08-01T18:30:00;5.4;;;4.6;;
61570;SDS011;47463;49.884;10.010;2022-08-01T18:35:00;5.4;;;4.6;;
61570;SDS011;47463;49.884;10.010;2022-08-01T18:40:00;5.4;;;4.3;;
61570;SDS011;47463;49.884;10.010;2022-08-01T18:45:00;5.4;;;4.3;;
61570;SDS011;47463;49.884;10.010;2022-08-01T18:50:00;7.5;;;4.7;;
61570;SDS011;47463;49.884;10.010;2022-08-01T18:55:00;7.5;;;4.7;;
61570;SDS011;47463;49.884;10.010;2022-08-01T19:00:00;6.2;;;4.6;;
61570;SDS011;47463;49.884;10.010;2022-08-01T19:05:00;6.2;;;4.6;;
61570;SDS011;47463;49.884;10.010;2022-08-01T19:10:00;7.7;;;4.6;;
61570;SDS011;47463;49.884;10.010;2022-08-01T19:15:00;7.7;;;4.6;;
61570;SDS011;47463;49.884;10.010;2022-08-01T19:20:00;5.9;;;4.6;;
61570;SDS011;47463;49.884;10.010;2022-08-01T19:25:00;5.9;;;4.6;;
61570;SDS011;47463;49.884;10.010;2022-08-01T19:30:00;5.6;;;4.7;;
61570;SDS011;47463;49.884;10.010;2022-08-01T19:35:01;5.6;;;4.7;;
61570;SDS011;47463;49.884;10.010;2022-08-01T19:40:00;6;;;4.8;;
61570;SDS011;47463;49.884;10.010;2022-08-01T19:45:00;6;;;4.8;;
61570;SDS011;47463;49.884;10.010;2022-08-01T19:50:00;5.1;;;4.5;;
61570;SDS011;47463;49.884;10.010;2022-08-01T19:55:00;5.1;;;4.5;;
61570;SDS011;47463;49.884;10.010;2022-08-01T20:00:00;5.9;;;5.3;;
61570;SDS011;47463;49.884;10.010;2022-08-01T20:05:00;5.9;;;5.3;;
61570;SDS011;47463;49.884;10.010;2022-08-01T20:10:00;7.2;;;5.1;;
61570;SDS011;47463;49.884;10.010;2022-08-01T20:15:00;7.2;;;5.1;;
61570;SDS011;47463;49.884;10.010;2022-08-01T20:20:00;6.3;;;5.2;;
61570;SDS011;47463;49.884;10.010;2022-08-01T20:25:00;6.3;;;5.2;;
61570;SDS011;47463;49.884;10.010;2022-08-01T20:30:00;6.2;;;5.5;;
61570;SDS011;47463;49.884;10.010;2022-08-01T20:35:00;6.2;;;5.5;;
61570;SDS011;47463;49.884;10.010;2022-08-01T20:40:00;6.7;;;5.7;;
61570;SDS011;47463;49.884;10.010;2022-08-01T20:45:00;6.7;;;5.7;;
61570;SDS011;47463;49.884;10.010;2022-08-01T20:50:00;6.7;;;5.9;;
61570;SDS011;47463;49.884;10.010;2022-08-01T20:55:00;6.7;;;5.9;;
61570;SDS011;47463;49.884;10.010;2022-08-01T21:00:00;6.5;;;5.8;;
61570;SDS011;47463;49.884;10.010;2022-08-01T21:05:01;6.5;;;5.8;;
61570;SDS011;47463;49.884;10.010;2022-08-01T21:10:02;6.7;;;6;;
61570;SDS011;47463;49.884;10.010;2022-08-01T21:15:00;6.7;;;6;;
61570;SDS011;47463;49.884;10.010;2022-08-01T21:20:00;5.9;;;4.6;;
61570;SDS011;47463;49.884;10.010;2022-08-01T21:25:00;5.9;;;4.6;;
61570;SDS011;47463;49.884;10.010;2022-08-01T21:30:00;5.4;;;3.9;;
61570;SDS011;47463;49.884;10.010;2022-08-01T21:35:00;5.4;;;3.9;;
61570;SDS011;47463;49.884;10.010;2022-08-01T21:40:00;5.3;;;3.8;;
61570;SDS011;47463;49.884;10.010;2022-08-01T21:45:00;5.3;;;3.8;;
61570;SDS011;47463;49.884;10.010;2022-08-01T21:50:00;4.4;;;3.1;;
61570;SDS011;47463;49.884;10.010;2022-08-01T21:55:01;4.4;;;3.1;;
61570;SDS011;47463;49.884;10.010;2022-08-01T22:00:01;4.8;;;3.5;;
61570;SDS011;47463;49.884;10.010;2022-08-01T22:05:01;4.8;;;3.5;;
61570;SDS011;47463;49.884;10.010;2022-08-01T22:10:00;4.5;;;3.3;;
61570;SDS011;47463;49.884;10.010;2022-08-01T22:15:00;4.5;;;3.3;;
61570;SDS011;47463;49.884;10.010;2022-08-01T22:20:00;3.8;;;3.3;;
61570;SDS011;47463;49.884;10.010;2022-08-01T22:25:00;3.8;;;3.3;;
61570;SDS011;47463;49.884;10.010;2022-08-01T22:30:02;3.8;;;3.4;;
61570;SDS011;47463;49.884;10.010;2022-08-01T22:35:00;3.8;;;3.4;;
61570;SDS011;47463;49.884;10.010;2022-08-01T22:40:00;3.5;;;3.2;;
61570;SDS011;47463;49.884;10.010;2022-08-01T22:45:02;3.5;;;3.2;;
61570;SDS011;47463;49.884;10.010;2022-08-01T22:50:01;4.1;;;3.3;;
61570;SDS011;47463;49.884;10.010;2022-08-01T22:55:02;4.1;;;3.3;;
61570;SDS011;47463;49.884;10.010;2022-08-01T23:00:00;4.8;;;3.1;;
61570;SDS011;47463;49.884;10.010;2022-08-01T23:05:00;4.8;;;3.1;;
61570;SDS011;47463;49.884;10.010;2022-08-01T23:10:00;3.5;;;3;;
61570;SDS011;47463;49.884;10.010;2022-08-01T23:15:00;3.5;;;3;;
61570;SDS011;47463;49.884;10.010;2022-08-01T23:20:00;3.6;;;3;;
61570;SDS011;47463;49.884;10.010;2022-08-01T23:25:01;3.6;;;3;;
61570;SDS011;47463;49.884;10.010;2022-08-01T23:30:00;3.5;;;2.9;;
61570;SDS011;47463;49.884;10.010;2022-08-01T23:35:00;3.5;;;2.9;;
61570;SDS011;47463;49.884;10.010;2022-08-01T23:40:00;5;;;2.9;;
61570;SDS011;47463;49.884;10.010;2022-08-01T23:45:00;5;;;2.9;;
61570;SDS011;47463;49.884;10.010;2022-08-01T23:50:00;3.2;;;2.8;;
61570;SDS011;47463;49.884;10.010;2022-08-01T23:55:00;3.2;;;2.8;;
